Time;durP1;ratioP1;P1;durP2;ratioP2;P2;SDS_P1;SDS_P2;PMS_P1;PMS_P2;Temp;Humidity;BMP_temperature;BMP_pressure;BME280_temperature;BME280_humidity;BME280_pressure;Samples;Min_cycle;Max_cycle;Signal;HPM_P1;HPM_P2
2023/09/10 00:00:18;;;;;;;;;;;20.10;84.30;;;;;;5027801;28;19917;-86
2023/09/10 00:02:44;;;;;;;;;;;20.20;83.60;;;;;;5038576;28;19924;-87
2023/09/10 00:05:09;;;;;;;;;;;20.10;83.50;;;;;;5021703;28;19909;-87
2023/09/10 00:07:35;;;;;;;;;;;20.00;84.00;;;;;;5022845;28;19916;-87
2023/09/10 00:10:00;;;;;;;;;;;20.10;84.30;;;;;;5024057;28;19920;-87
2023/09/10 00:12:26;;;;;;;;;;;20.10;83.80;;;;;;5043414;28;19909;-87
2023/09/10 00:14:51;;;;;;;;;;;20.10;83.70;;;;;;5032101;28;20016;-87
2023/09/10 00:17:17;;;;;;;;;;;20.00;84.00;;;;;;5022946;28;19931;-87
2023/09/10 00:19:42;;;;;;;;;;;20.00;84.50;;;;;;5020945;28;19952;-86
2023/09/10 00:22:07;;;;;;;;;;;19.90;84.70;;;;;;5027549;28;19924;-87
2023/09/10 00:24:33;;;;;;;;;;;19.90;84.70;;;;;;5027101;28;19939;-86
2023/09/10 00:26:58;;;;;;;;;;;20.00;84.00;;;;;;5024464;28;19975;-86
2023/09/10 00:29:24;;;;;;;;;;;19.90;84.20;;;;;;5038711;28;19948;-87
2023/09/10 00:31:49;;;;;;;;;;;19.80;84.30;;;;;;5018023;28;19967;-86
2023/09/10 00:34:15;;;;;;;;;;;19.70;84.60;;;;;;5048947;28;19935;-86
2023/09/10 00:36:40;;;;;;;;;;;19.60;84.60;;;;;;5054677;28;19919;-87
2023/09/10 00:39:06;;;;;;;;;;;19.60;84.60;;;;;;5036492;28;20341;-86
2023/09/10 00:41:32;;;;;;;;;;;19.70;84.70;;;;;;5042002;28;19909;-86
2023/09/10 00:43:57;;;;;;;;;;;19.70;84.70;;;;;;5023175;28;19909;-86
2023/09/10 00:46:23;;;;;;;;;;;19.60;84.80;;;;;;5070386;28;19901;-87
2023/09/10 00:48:48;;;;;;;;;;;19.60;84.90;;;;;;5031826;28;19924;-87
2023/09/10 00:51:14;;;;;;;;;;;19.60;84.60;;;;;;5015462;28;19956;-86
2023/09/10 00:53:40;;;;;;;;;;;19.80;84.30;;;;;;5021763;28;19920;-87
2023/09/10 00:56:06;;;;;;;;;;;19.70;84.50;;;;;;5026054;28;19928;-87
2023/09/10 00:58:31;;;;;;;;;;;19.60;84.70;;;;;;5035107;28;19921;-86
2023/09/10 01:00:58;;;;;;;;;;;19.60;84.60;;;;;;5024313;28;19909;-86
2023/09/10 01:03:24;;;;;;;;;;;19.60;84.60;;;;;;5038318;28;19912;-86
2023/09/10 01:05:50;;;;;;;;;;;19.60;84.60;;;;;;5028389;28;19920;-87
2023/09/10 01:08:15;;;;;;;;;;;19.50;84.80;;;;;;5030837;28;19921;-86
2023/09/10 01:11:01;;;;;;;;;;;19.40;84.90;;;;;;5057205;28;19909;-86
2023/09/10 01:13:37;;;;;;;;;;;19.40;85.00;;;;;;5023477;28;19913;-86
2023/09/10 01:16:05;;;;;;;;;;;19.40;84.80;;;;;;5016877;28;19963;-87
2023/09/10 01:18:47;;;;;;;;;;;19.40;85.00;;;;;;5034751;28;19975;-86
2023/09/10 01:21:24;;;;;;;;;;;19.50;84.80;;;;;;5023538;28;19909;-86
2023/09/10 01:23:56;;;;;;;;;;;19.40;84.70;;;;;;5014619;28;20011;-87
2023/09/10 01:26:22;;;;;;;;;;;19.40;85.00;;;;;;5033856;28;20087;-87
2023/09/10 01:28:47;;;;;;;;;;;19.40;85.30;;;;;;5027507;28;20589;-87
2023/09/10 01:31:13;;;;;;;;;;;19.30;85.30;;;;;;5021349;28;19935;-86
2023/09/10 01:33:41;;;;;;;;;;;19.40;85.00;;;;;;5030019;28;19913;-86
2023/09/10 01:36:30;;;;;;;;;;;19.30;84.90;;;;;;5026745;28;20384;-86
2023/09/10 01:39:10;;;;;;;;;;;19.30;84.90;;;;;;5014120;28;19916;-87
2023/09/10 01:41:37;;;;;;;;;;;19.30;85.00;;;;;;5045186;28;19920;-87
2023/09/10 01:44:04;;;;;;;;;;;19.30;85.00;;;;;;5028152;28;19936;-86
2023/09/10 01:46:30;;;;;;;;;;;19.40;84.60;;;;;;5038532;28;20012;-87
2023/09/10 01:48:55;;;;;;;;;;;19.40;84.50;;;;;;5023181;28;19912;-87
2023/09/10 01:51:21;;;;;;;;;;;19.30;84.80;;;;;;5030615;28;19955;-87
2023/09/10 01:53:46;;;;;;;;;;;19.20;85.30;;;;;;5030281;28;19917;-87
2023/09/10 01:56:12;;;;;;;;;;;19.20;85.30;;;;;;5042373;28;19909;-86
2023/09/10 01:58:38;;;;;;;;;;;19.20;85.50;;;;;;5035326;28;19961;-86
2023/09/10 02:01:05;;;;;;;;;;;19.10;85.70;;;;;;5053543;28;20427;-86
2023/09/10 02:03:31;;;;;;;;;;;19.10;85.90;;;;;;5038658;28;20389;-86
2023/09/10 02:05:58;;;;;;;;;;;19.00;85.80;;;;;;5037706;28;19913;-86
2023/09/10 02:08:24;;;;;;;;;;;19.00;85.80;;;;;;5030071;28;19966;-86
2023/09/10 02:10:49;;;;;;;;;;;19.00;85.90;;;;;;5047767;28;19917;-86
2023/09/10 02:13:15;;;;;;;;;;;19.10;85.80;;;;;;5030192;28;20389;-86
2023/09/10 02:15:40;;;;;;;;;;;19.00;85.70;;;;;;5026278;28;19913;-86
2023/09/10 02:18:06;;;;;;;;;;;19.00;85.90;;;;;;5023997;28;19941;-86
2023/09/10 02:20:35;;;;;;;;;;;19.00;86.00;;;;;;5013254;28;20336;-86
2023/09/10 02:23:01;;;;;;;;;;;19.00;86.00;;;;;;5029008;28;19921;-86
2023/09/10 02:25:26;;;;;;;;;;;19.00;85.90;;;;;;5021332;28;19920;-86
2023/09/10 02:27:52;;;;;;;;;;;19.00;86.10;;;;;;5025398;28;19909;-86
2023/09/10 02:30:17;;;;;;;;;;;18.90;86.20;;;;;;5017430;28;19941;-87
2023/09/10 02:32:42;;;;;;;;;;;18.90;86.20;;;;;;5024370;28;20298;-86
2023/09/10 02:35:08;;;;;;;;;;;18.90;86.30;;;;;;5051670;28;20297;-86
2023/09/10 02:37:33;;;;;;;;;;;18.90;86.20;;;;;;5038055;28;19912;-86
2023/09/10 02:39:59;;;;;;;;;;;18.90;86.40;;;;;;5042844;28;19960;-87
2023/09/10 02:42:24;;;;;;;;;;;18.90;86.60;;;;;;5041831;28;19909;-86
2023/09/10 02:44:50;;;;;;;;;;;18.90;86.50;;;;;;5037707;28;19919;-87
2023/09/10 02:47:15;;;;;;;;;;;18.90;86.50;;;;;;5042391;28;19971;-86
2023/09/10 02:49:41;;;;;;;;;;;19.00;86.10;;;;;;5019177;28;19912;-86
2023/09/10 02:52:06;;;;;;;;;;;19.00;85.70;;;;;;5027622;28;19909;-87
2023/09/10 02:54:33;;;;;;;;;;;19.00;85.70;;;;;;5016344;28;19913;-88
2023/09/10 02:56:59;;;;;;;;;;;19.00;85.30;;;;;;5019974;28;19914;-87
2023/09/10 02:59:25;;;;;;;;;;;19.00;85.30;;;;;;5037964;28;19931;-87
2023/09/10 03:01:51;;;;;;;;;;;19.00;85.20;;;;;;5059695;28;19906;-87
2023/09/10 03:04:17;;;;;;;;;;;19.00;84.80;;;;;;5054835;28;19926;-87
2023/09/10 03:06:46;;;;;;;;;;;18.90;85.10;;;;;;5036123;28;19924;-86
2023/09/10 03:09:12;;;;;;;;;;;19.00;84.90;;;;;;5037568;28;20386;-87
2023/09/10 03:11:38;;;;;;;;;;;18.90;84.90;;;;;;5022441;28;20374;-87
2023/09/10 03:14:04;;;;;;;;;;;18.80;85.30;;;;;;5019006;28;19913;-87
2023/09/10 03:16:30;;;;;;;;;;;18.80;85.50;;;;;;5026731;28;19909;-87
2023/09/10 03:18:55;;;;;;;;;;;18.60;85.70;;;;;;5023387;28;20484;-87
2023/09/10 03:21:21;;;;;;;;;;;18.70;86.20;;;;;;5031655;28;20424;-87
2023/09/10 03:23:46;;;;;;;;;;;18.60;86.00;;;;;;5014358;28;19917;-87
2023/09/10 03:26:12;;;;;;;;;;;18.60;86.00;;;;;;5023388;28;20381;-87
2023/09/10 03:28:37;;;;;;;;;;;18.60;86.20;;;;;;5042464;28;19909;-87
2023/09/10 03:31:03;;;;;;;;;;;18.70;85.90;;;;;;5023196;28;19916;-87
2023/09/10 03:33:28;;;;;;;;;;;18.80;85.50;;;;;;5021790;28;20362;-87
2023/09/10 03:35:54;;;;;;;;;;;18.60;85.50;;;;;;5021088;28;20524;-86
2023/09/10 03:38:19;;;;;;;;;;;18.60;85.80;;;;;;5018866;28;19952;-87
2023/09/10 03:40:45;;;;;;;;;;;18.70;85.40;;;;;;5026763;28;19913;-87
2023/09/10 03:43:10;;;;;;;;;;;18.70;85.40;;;;;;5027851;28;19923;-87
2023/09/10 03:45:36;;;;;;;;;;;18.70;85.30;;;;;;5039289;28;19952;-87
2023/09/10 03:48:01;;;;;;;;;;;18.80;84.80;;;;;;5028435;28;19913;-87
2023/09/10 03:50:27;;;;;;;;;;;18.80;84.30;;;;;;5018749;28;19917;-86
2023/09/10 03:52:52;;;;;;;;;;;18.80;84.30;;;;;;5025802;28;19917;-87
2023/09/10 03:55:17;;;;;;;;;;;18.70;84.20;;;;;;5015951;28;19916;-87
2023/09/10 03:57:43;;;;;;;;;;;18.60;84.90;;;;;;5019557;28;19920;-87
2023/09/10 04:00:09;;;;;;;;;;;18.60;85.10;;;;;;5037935;28;19924;-87
2023/09/10 04:02:34;;;;;;;;;;;18.60;85.40;;;;;;5027566;28;19919;-86
2023/09/10 04:05:00;;;;;;;;;;;18.60;84.90;;;;;;5023515;28;20051;-87
2023/09/10 04:07:25;;;;;;;;;;;18.50;85.30;;;;;;5023222;28;19914;-87
2023/09/10 04:09:51;;;;;;;;;;;18.50;85.10;;;;;;5047266;28;19925;-87
2023/09/10 04:12:16;;;;;;;;;;;18.50;85.40;;;;;;5029206;28;19913;-87
2023/09/10 04:14:41;;;;;;;;;;;18.50;85.80;;;;;;5043843;28;19962;-86
2023/09/10 04:17:07;;;;;;;;;;;18.50;85.50;;;;;;5028514;28;19909;-86
2023/09/10 04:19:32;;;;;;;;;;;18.40;85.50;;;;;;5028742;28;19919;-87
2023/09/10 04:21:58;;;;;;;;;;;18.50;85.70;;;;;;5019725;28;20003;-86
2023/09/10 04:24:23;;;;;;;;;;;18.40;85.80;;;;;;5021974;28;19913;-87
2023/09/10 04:26:49;;;;;;;;;;;18.50;86.00;;;;;;5028135;28;19924;-86
2023/09/10 04:29:14;;;;;;;;;;;18.50;85.40;;;;;;5025681;28;20346;-87
2023/09/10 04:31:41;;;;;;;;;;;18.50;85.10;;;;;;5044823;28;19916;-87
2023/09/10 04:34:06;;;;;;;;;;;18.40;85.00;;;;;;5019365;28;19928;-87
2023/09/10 04:36:31;;;;;;;;;;;18.30;85.80;;;;;;5040830;28;19912;-87
2023/09/10 04:38:57;;;;;;;;;;;18.30;86.10;;;;;;5017841;28;19916;-87
2023/09/10 04:41:22;;;;;;;;;;;18.30;86.00;;;;;;5008819;28;20342;-87
2023/09/10 04:43:48;;;;;;;;;;;18.30;86.00;;;;;;5015657;28;19917;-86
2023/09/10 04:46:13;;;;;;;;;;;18.20;86.20;;;;;;5028374;28;19954;-87
2023/09/10 04:48:39;;;;;;;;;;;18.20;86.20;;;;;;5021897;28;19913;-86
2023/09/10 04:51:04;;;;;;;;;;;18.20;86.40;;;;;;5023061;28;20378;-87
2023/09/10 04:53:30;;;;;;;;;;;18.30;86.30;;;;;;5022021;28;20354;-87
2023/09/10 04:55:55;;;;;;;;;;;18.20;86.00;;;;;;5013577;28;19917;-87
2023/09/10 04:58:21;;;;;;;;;;;18.20;86.10;;;;;;5021426;28;19916;-87
2023/09/10 05:00:48;;;;;;;;;;;18.20;86.20;;;;;;5047960;28;19916;-86
2023/09/10 05:03:14;;;;;;;;;;;18.30;85.90;;;;;;5037293;28;19916;-87
2023/09/10 05:05:39;;;;;;;;;;;18.20;86.40;;;;;;5024568;28;20382;-87
2023/09/10 05:08:04;;;;;;;;;;;18.10;86.60;;;;;;5019393;28;20396;-87
2023/09/10 05:10:30;;;;;;;;;;;18.20;86.40;;;;;;5015135;28;20435;-87
2023/09/10 05:12:55;;;;;;;;;;;18.10;86.40;;;;;;5035826;28;19901;-87
2023/09/10 05:15:22;;;;;;;;;;;18.20;85.90;;;;;;5051610;28;19937;-87
2023/09/10 05:17:47;;;;;;;;;;;18.20;86.30;;;;;;5034160;28;20317;-86
2023/09/10 05:20:13;;;;;;;;;;;18.20;86.10;;;;;;5030635;28;19917;-86
2023/09/10 05:22:38;;;;;;;;;;;18.20;86.40;;;;;;5024251;28;19975;-87
2023/09/10 05:25:04;;;;;;;;;;;18.20;86.30;;;;;;5046845;28;19959;-87
2023/09/10 05:27:29;;;;;;;;;;;18.20;86.30;;;;;;5020473;28;19916;-87
2023/09/10 05:29:55;;;;;;;;;;;18.20;86.40;;;;;;5047122;28;19917;-87
2023/09/10 05:32:20;;;;;;;;;;;18.20;86.50;;;;;;5020694;28;19913;-86
2023/09/10 05:34:46;;;;;;;;;;;18.30;86.50;;;;;;5028467;28;19913;-86
2023/09/10 05:37:11;;;;;;;;;;;18.30;86.60;;;;;;5028179;28;19952;-87
2023/09/10 05:39:37;;;;;;;;;;;18.30;86.60;;;;;;5028634;28;19959;-87
2023/09/10 05:42:02;;;;;;;;;;;18.20;86.80;;;;;;5046693;28;20012;-87
2023/09/10 05:44:28;;;;;;;;;;;18.20;86.60;;;;;;5050183;28;19908;-87
2023/09/10 05:46:53;;;;;;;;;;;18.30;86.90;;;;;;5039156;28;19921;-87
2023/09/10 05:49:19;;;;;;;;;;;18.50;87.00;;;;;;5025990;28;19920;-87
2023/09/10 05:51:47;;;;;;;;;;;18.70;86.10;;;;;;5035233;28;19924;-87
2023/09/10 05:54:12;;;;;;;;;;;18.70;85.70;;;;;;5026643;28;19913;-88
2023/09/10 05:56:38;;;;;;;;;;;18.80;85.40;;;;;;5030880;28;20381;-87
2023/09/10 05:59:05;;;;;;;;;;;18.80;85.30;;;;;;5035647;28;19943;-88
2023/09/10 06:01:30;;;;;;;;;;;18.80;85.20;;;;;;5014316;28;20397;-88
2023/09/10 06:03:57;;;;;;;;;;;18.90;85.20;;;;;;5016614;28;19996;-87
2023/09/10 06:06:22;;;;;;;;;;;18.90;85.00;;;;;;5052521;28;19924;-88
2023/09/10 06:08:47;;;;;;;;;;;18.90;85.00;;;;;;5068863;28;19913;-87
2023/09/10 06:11:13;;;;;;;;;;;18.80;85.60;;;;;;5047667;28;19924;-88
2023/09/10 06:13:38;;;;;;;;;;;18.80;86.00;;;;;;5031519;28;19921;-88
2023/09/10 06:16:04;;;;;;;;;;;18.80;86.20;;;;;;5010934;28;19913;-87
2023/09/10 06:18:29;;;;;;;;;;;18.80;86.10;;;;;;5035974;28;19932;-88
2023/09/10 06:20:55;;;;;;;;;;;18.90;86.20;;;;;;5054195;28;20313;-87
2023/09/10 06:23:20;;;;;;;;;;;18.90;86.40;;;;;;5028327;28;19913;-88
2023/09/10 06:25:46;;;;;;;;;;;19.00;86.40;;;;;;5026782;28;19952;-87
2023/09/10 06:28:11;;;;;;;;;;;19.00;86.40;;;;;;5028433;28;19913;-88
2023/09/10 06:30:38;;;;;;;;;;;19.10;86.20;;;;;;5017161;28;19925;-87
2023/09/10 06:33:04;;;;;;;;;;;19.10;86.20;;;;;;5036510;28;20313;-88
2023/09/10 06:35:29;;;;;;;;;;;19.10;86.50;;;;;;5037815;28;19920;-88
2023/09/10 06:37:55;;;;;;;;;;;19.20;86.30;;;;;;5028684;28;19920;-88
2023/09/10 06:40:20;;;;;;;;;;;19.20;86.70;;;;;;5035294;28;19917;-88
2023/09/10 06:42:46;;;;;;;;;;;19.30;86.70;;;;;;5025999;28;19913;-88
2023/09/10 06:45:11;;;;;;;;;;;19.30;87.00;;;;;;5022458;28;19924;-89
2023/09/10 06:47:37;;;;;;;;;;;19.40;86.90;;;;;;5020081;28;19987;-89
2023/09/10 06:50:02;;;;;;;;;;;19.40;87.10;;;;;;5022116;28;20396;-89
2023/09/10 06:52:28;;;;;;;;;;;19.50;87.20;;;;;;5045716;28;19913;-89
2023/09/10 06:54:54;;;;;;;;;;;19.50;87.20;;;;;;5023961;28;19919;-89
2023/09/10 06:57:19;;;;;;;;;;;19.60;87.30;;;;;;5028995;28;19913;-88
2023/09/10 06:59:45;;;;;;;;;;;19.60;87.20;;;;;;5042619;28;20008;-89
2023/09/10 07:02:10;;;;;;;;;;;19.60;87.20;;;;;;5044152;28;19928;-90
2023/09/10 07:04:35;;;;;;;;;;;19.70;87.30;;;;;;5034536;28;19917;-89
2023/09/10 07:07:01;;;;;;;;;;;19.70;87.30;;;;;;5020685;28;19919;-89
2023/09/10 07:09:26;;;;;;;;;;;19.80;87.40;;;;;;5019454;28;19917;-89
2023/09/10 07:11:52;;;;;;;;;;;19.80;87.40;;;;;;5020603;28;19917;-90
2023/09/10 07:14:18;;;;;;;;;;;19.90;87.40;;;;;;5018038;28;20423;-89
2023/09/10 07:16:46;;;;;;;;;;;19.90;87.50;;;;;;5020673;28;19996;-89
2023/09/10 07:19:12;;;;;;;;;;;20.00;87.30;;;;;;5012058;28;19917;-88
2023/09/10 07:21:37;;;;;;;;;;;20.00;87.20;;;;;;5013417;28;19921;-88
2023/09/10 07:24:06;;;;;;;;;;;20.10;87.10;;;;;;5037488;28;20000;-88
2023/09/10 07:26:32;;;;;;;;;;;20.10;87.00;;;;;;5038471;28;20003;-88
2023/09/10 07:28:58;;;;;;;;;;;20.20;86.90;;;;;;5033185;28;19921;-87
2023/09/10 07:31:23;;;;;;;;;;;20.30;86.80;;;;;;5039978;28;19971;-88
2023/09/10 07:33:49;;;;;;;;;;;20.30;86.90;;;;;;5029739;28;19921;-88
2023/09/10 07:36:14;;;;;;;;;;;20.40;86.80;;;;;;5020151;28;19913;-86
2023/09/10 07:38:40;;;;;;;;;;;20.50;86.90;;;;;;5045617;28;20369;-87
2023/09/10 07:41:05;;;;;;;;;;;20.50;86.70;;;;;;5029077;28;20823;-86
2023/09/10 07:43:31;;;;;;;;;;;20.50;86.50;;;;;;5050436;28;19917;-87
2023/09/10 07:45:56;;;;;;;;;;;20.60;86.30;;;;;;5043021;28;19932;-87
2023/09/10 07:48:22;;;;;;;;;;;20.70;86.30;;;;;;5039901;28;19963;-86
2023/09/10 07:50:57;;;;;;;;;;;20.80;86.40;;;;;;5032451;28;19960;-85
2023/09/10 07:53:25;;;;;;;;;;;20.90;86.20;;;;;;5005721;28;19917;-87
2023/09/10 07:55:51;;;;;;;;;;;20.90;86.10;;;;;;5016274;28;19921;-87
2023/09/10 07:58:17;;;;;;;;;;;21.00;86.40;;;;;;5040314;28;19996;-86
2023/09/10 08:00:42;;;;;;;;;;;21.10;86.40;;;;;;5026275;28;19936;-86
2023/09/10 08:03:07;;;;;;;;;;;21.30;86.30;;;;;;5026792;28;20410;-85
2023/09/10 08:05:36;;;;;;;;;;;21.40;86.20;;;;;;5027053;28;19919;-85
2023/09/10 08:08:03;;;;;;;;;;;21.50;86.10;;;;;;5021990;28;20271;-85
2023/09/10 08:10:29;;;;;;;;;;;21.60;85.30;;;;;;5032113;28;19909;-85
2023/09/10 08:12:54;;;;;;;;;;;21.60;85.30;;;;;;5013712;28;19921;-85
2023/09/10 08:15:19;;;;;;;;;;;21.70;84.90;;;;;;5024244;28;19913;-86
2023/09/10 08:17:45;;;;;;;;;;;21.80;84.20;;;;;;5016668;28;19913;-85
2023/09/10 08:20:11;;;;;;;;;;;22.00;84.10;;;;;;5020785;28;19921;-86
2023/09/10 08:22:37;;;;;;;;;;;22.10;83.40;;;;;;5022816;28;19913;-85
2023/09/10 08:25:04;;;;;;;;;;;22.10;83.30;;;;;;5036616;28;20278;-85
2023/09/10 08:27:29;;;;;;;;;;;22.10;83.30;;;;;;5026087;28;20290;-85
2023/09/10 08:29:55;;;;;;;;;;;22.30;82.80;;;;;;5023959;28;19909;-86
2023/09/10 08:32:20;;;;;;;;;;;22.30;82.20;;;;;;5026774;28;19921;-86
2023/09/10 08:34:46;;;;;;;;;;;22.40;82.00;;;;;;5035538;28;19948;-86
2023/09/10 08:37:12;;;;;;;;;;;22.50;81.60;;;;;;5018780;28;19913;-85
2023/09/10 08:39:37;;;;;;;;;;;22.60;79.20;;;;;;5022980;28;19918;-86
2023/09/10 08:42:06;;;;;;;;;;;22.70;79.20;;;;;;5036728;28;19967;-86
2023/09/10 08:44:32;;;;;;;;;;;22.70;79.40;;;;;;5025802;28;19954;-85
2023/09/10 08:46:59;;;;;;;;;;;22.80;79.30;;;;;;5045106;28;20348;-86
2023/09/10 08:49:26;;;;;;;;;;;22.90;79.60;;;;;;5042219;28;19913;-86
2023/09/10 08:51:52;;;;;;;;;;;23.00;80.10;;;;;;5033555;28;19999;-85
2023/09/10 08:54:17;;;;;;;;;;;23.00;80.00;;;;;;5033652;28;19948;-85
2023/09/10 08:56:43;;;;;;;;;;;23.10;78.80;;;;;;5040986;28;19919;-86
2023/09/10 08:59:10;;;;;;;;;;;23.20;77.50;;;;;;5032844;28;19964;-85
2023/09/10 09:01:35;;;;;;;;;;;23.30;76.80;;;;;;5028766;28;20000;-86
2023/09/10 09:04:01;;;;;;;;;;;23.50;76.70;;;;;;5044708;28;20007;-86
2023/09/10 09:06:28;;;;;;;;;;;23.50;76.60;;;;;;5044995;28;19913;-86
2023/09/10 09:08:56;;;;;;;;;;;23.60;75.90;;;;;;5028233;28;19936;-86
2023/09/10 09:11:22;;;;;;;;;;;23.60;76.00;;;;;;5024577;28;19924;-86
2023/09/10 09:13:48;;;;;;;;;;;23.60;75.70;;;;;;5053414;28;19912;-86
2023/09/10 09:16:15;;;;;;;;;;;23.70;75.50;;;;;;5054514;28;19908;-86
2023/09/10 09:18:40;;;;;;;;;;;23.70;75.70;;;;;;5067972;28;19959;-86
2023/09/10 09:21:16;;;;;;;;;;;23.90;73.40;;;;;;5070877;28;19917;-86
2023/09/10 09:23:48;;;;;;;;;;;23.90;73.10;;;;;;5034339;28;19975;-85
2023/09/10 09:26:14;;;;;;;;;;;24.10;70.20;;;;;;5035797;28;19992;-85
2023/09/10 09:28:39;;;;;;;;;;;24.10;69.30;;;;;;5032625;28;20011;-86
2023/09/10 09:31:11;;;;;;;;;;;24.10;67.40;;;;;;5034545;28;19959;-85
2023/09/10 09:33:37;;;;;;;;;;;24.30;65.90;;;;;;5025919;28;20373;-86
2023/09/10 09:36:06;;;;;;;;;;;24.50;66.10;;;;;;5035249;28;19916;-85
2023/09/10 09:38:32;;;;;;;;;;;24.50;65.90;;;;;;5036306;28;19913;-86
2023/09/10 09:40:57;;;;;;;;;;;24.70;65.60;;;;;;5046296;28;19921;-86
2023/09/10 09:43:22;;;;;;;;;;;24.70;66.20;;;;;;5038223;28;19944;-86
2023/09/10 09:45:48;;;;;;;;;;;24.70;66.20;;;;;;5044737;28;19905;-85
2023/09/10 09:48:13;;;;;;;;;;;24.70;68.30;;;;;;5046346;28;19916;-86
2023/09/10 09:50:39;;;;;;;;;;;24.80;68.10;;;;;;5053672;28;20313;-86
2023/09/10 09:53:05;;;;;;;;;;;24.80;68.50;;;;;;5028907;28;19908;-86
2023/09/10 09:55:30;;;;;;;;;;;24.70;68.40;;;;;;5031714;28;20059;-86
2023/09/10 09:57:55;;;;;;;;;;;24.70;68.20;;;;;;5023642;28;19917;-86
2023/09/10 10:00:21;;;;;;;;;;;24.70;68.10;;;;;;5022818;28;19967;-86
2023/09/10 10:02:46;;;;;;;;;;;24.70;66.80;;;;;;5028143;28;19917;-86
2023/09/10 10:05:13;;;;;;;;;;;24.80;66.40;;;;;;5052963;28;19909;-86
2023/09/10 10:07:40;;;;;;;;;;;24.90;67.50;;;;;;5046896;28;19909;-86
2023/09/10 10:10:06;;;;;;;;;;;25.10;66.30;;;;;;5024904;28;19916;-86
2023/09/10 10:12:32;;;;;;;;;;;25.10;66.80;;;;;;5026233;28;19985;-86
2023/09/10 10:14:59;;;;;;;;;;;25.10;62.20;;;;;;5031475;28;19960;-85
2023/09/10 10:17:25;;;;;;;;;;;25.10;62.30;;;;;;5032110;28;19921;-86
2023/09/10 10:19:51;;;;;;;;;;;25.10;63.40;;;;;;5027645;28;19917;-86
2023/09/10 10:22:16;;;;;;;;;;;25.20;63.50;;;;;;5038969;28;19933;-86
2023/09/10 10:24:42;;;;;;;;;;;25.30;62.00;;;;;;5056040;28;19909;-86
2023/09/10 10:27:08;;;;;;;;;;;25.50;59.30;;;;;;5031085;28;20000;-86
2023/09/10 10:29:33;;;;;;;;;;;25.40;59.50;;;;;;5028822;28;19967;-85
2023/09/10 10:32:07;;;;;;;;;;;25.50;58.10;;;;;;5046427;28;19956;-86
2023/09/10 10:34:39;;;;;;;;;;;25.50;58.80;;;;;;5029564;28;20405;-86
2023/09/10 10:37:14;;;;;;;;;;;25.60;60.70;;;;;;5027409;28;20004;-86
2023/09/10 10:39:52;;;;;;;;;;;25.60;61.60;;;;;;5027520;28;20381;-85
2023/09/10 10:42:20;;;;;;;;;;;25.60;59.90;;;;;;5014912;28;19909;-86
2023/09/10 10:44:48;;;;;;;;;;;26.00;61.40;;;;;;5028402;28;19962;-86
2023/09/10 10:47:17;;;;;;;;;;;26.00;60.60;;;;;;5032908;28;20358;-86
2023/09/10 10:49:49;;;;;;;;;;;25.90;62.70;;;;;;5033404;28;20417;-86
2023/09/10 10:52:15;;;;;;;;;;;25.90;62.50;;;;;;5020198;28;19916;-86
2023/09/10 10:54:41;;;;;;;;;;;25.90;62.60;;;;;;5036482;28;19913;-86
2023/09/10 10:57:09;;;;;;;;;;;25.90;62.40;;;;;;5037883;28;20405;-86
2023/09/10 10:59:34;;;;;;;;;;;26.10;59.90;;;;;;5025594;28;19914;-86
2023/09/10 11:02:10;;;;;;;;;;;26.20;62.30;;;;;;5024201;28;20282;-86
2023/09/10 11:04:35;;;;;;;;;;;26.10;61.50;;;;;;5028125;28;20294;-86
2023/09/10 11:07:20;;;;;;;;;;;26.20;60.70;;;;;;5021891;28;19913;-86
2023/09/10 11:09:48;;;;;;;;;;;26.10;61.40;;;;;;5032826;28;19932;-86
2023/09/10 11:12:14;;;;;;;;;;;26.20;60.70;;;;;;5028086;28;19910;-86
2023/09/10 11:15:03;;;;;;;;;;;26.20;60.20;;;;;;5026498;28;19908;-86
2023/09/10 11:17:31;;;;;;;;;;;26.20;59.30;;;;;;5024437;28;20366;-86
2023/09/10 11:19:57;;;;;;;;;;;26.10;59.40;;;;;;5033388;28;19919;-86
2023/09/10 11:22:23;;;;;;;;;;;26.10;59.50;;;;;;5025744;28;19908;-86
2023/09/10 11:25:02;;;;;;;;;;;26.10;59.20;;;;;;5022006;28;20259;-86
2023/09/10 11:27:28;;;;;;;;;;;26.20;58.70;;;;;;5033123;28;20099;-86
2023/09/10 11:30:03;;;;;;;;;;;26.20;58.20;;;;;;5035348;28;19996;-86
2023/09/10 11:32:28;;;;;;;;;;;26.20;58.20;;;;;;5066732;28;19944;-86
2023/09/10 11:35:14;;;;;;;;;;;26.50;57.50;;;;;;5035628;28;19913;-86
2023/09/10 11:37:41;;;;;;;;;;;26.40;56.40;;;;;;5034840;28;19916;-86
2023/09/10 11:40:07;;;;;;;;;;;26.50;55.90;;;;;;5026333;28;19920;-86
2023/09/10 11:42:33;;;;;;;;;;;26.50;58.50;;;;;;5025793;28;19920;-86
2023/09/10 11:44:58;;;;;;;;;;;26.60;57.30;;;;;;5030043;28;19917;-86
2023/09/10 11:47:26;;;;;;;;;;;26.60;56.60;;;;;;5032408;28;19975;-86
2023/09/10 11:49:59;;;;;;;;;;;26.50;57.10;;;;;;5048144;28;19967;-86
2023/09/10 11:52:24;;;;;;;;;;;26.50;57.90;;;;;;5024242;28;19913;-86
2023/09/10 11:54:51;;;;;;;;;;;26.60;59.70;;;;;;5046735;28;20371;-86
2023/09/10 11:57:17;;;;;;;;;;;26.70;58.30;;;;;;5040773;28;19947;-87
2023/09/10 11:59:48;;;;;;;;;;;26.70;60.10;;;;;;5042116;28;19936;-86
2023/09/10 12:02:14;;;;;;;;;;;26.70;59.70;;;;;;5067347;28;19920;-86
2023/09/10 12:04:39;;;;;;;;;;;26.60;61.50;;;;;;5050700;28;19913;-86
2023/09/10 12:07:05;;;;;;;;;;;26.60;60.70;;;;;;5050641;28;19944;-86
2023/09/10 12:09:33;;;;;;;;;;;26.60;61.00;;;;;;5027691;28;19920;-89
2023/09/10 12:12:20;;;;;;;;;;;26.60;60.50;;;;;;5008772;28;20051;-86
2023/09/10 12:14:45;;;;;;;;;;;26.70;61.30;;;;;;5011029;28;19945;-87
2023/09/10 12:17:11;;;;;;;;;;;26.60;60.60;;;;;;5035247;28;19917;-87
2023/09/10 12:19:37;;;;;;;;;;;26.80;60.60;;;;;;5018025;28;20367;-86
2023/09/10 12:22:04;;;;;;;;;;;26.80;61.80;;;;;;5040444;28;20053;-87
2023/09/10 12:24:30;;;;;;;;;;;26.70;61.20;;;;;;5017798;28;19917;-86
2023/09/10 12:26:56;;;;;;;;;;;26.80;61.30;;;;;;5026038;28;20294;-87
2023/09/10 12:29:21;;;;;;;;;;;26.80;60.50;;;;;;5053564;28;19928;-88
2023/09/10 12:31:47;;;;;;;;;;;26.80;61.00;;;;;;5048886;28;19909;-86
2023/09/10 12:34:14;;;;;;;;;;;26.80;61.00;;;;;;5034964;28;19913;-86
2023/09/10 12:36:40;;;;;;;;;;;26.70;62.00;;;;;;5031025;28;20337;-86
2023/09/10 12:39:16;;;;;;;;;;;26.80;61.00;;;;;;5021378;28;19968;-87
2023/09/10 12:41:42;;;;;;;;;;;26.80;61.50;;;;;;5033752;28;19957;-87
2023/09/10 12:44:09;;;;;;;;;;;26.80;62.40;;;;;;5037087;28;21330;-87
2023/09/10 12:46:35;;;;;;;;;;;26.90;63.10;;;;;;5013199;28;19917;-86
2023/09/10 12:49:00;;;;;;;;;;;27.00;62.70;;;;;;5015032;28;20432;-87
2023/09/10 12:51:26;;;;;;;;;;;27.20;63.40;;;;;;5031741;28;19913;-86
2023/09/10 12:53:51;;;;;;;;;;;27.30;63.90;;;;;;5018932;28;20002;-87
2023/09/10 12:56:17;;;;;;;;;;;27.30;62.40;;;;;;5016580;28;20290;-86
2023/09/10 12:58:44;;;;;;;;;;;27.20;63.40;;;;;;5039418;28;19996;-86
2023/09/10 13:01:13;;;;;;;;;;;27.20;63.50;;;;;;5044225;28;19913;-85
2023/09/10 13:03:38;;;;;;;;;;;27.10;63.70;;;;;;5051216;28;19913;-85
2023/09/10 13:06:04;;;;;;;;;;;27.10;63.30;;;;;;5027732;28;19965;-86
2023/09/10 13:08:29;;;;;;;;;;;27.30;61.60;;;;;;5032166;28;19916;-86
2023/09/10 13:10:55;;;;;;;;;;;27.70;59.40;;;;;;5041051;28;19940;-85
2023/09/10 13:13:20;;;;;;;;;;;27.80;60.20;;;;;;5025759;28;19917;-85
2023/09/10 13:15:46;;;;;;;;;;;27.70;60.20;;;;;;5013326;28;20283;-86
2023/09/10 13:18:11;;;;;;;;;;;27.80;59.60;;;;;;5030540;28;19917;-85
2023/09/10 13:20:37;;;;;;;;;;;27.80;59.70;;;;;;5031679;28;19947;-85
2023/09/10 13:23:02;;;;;;;;;;;27.80;59.60;;;;;;5023075;28;20091;-86
2023/09/10 13:25:28;;;;;;;;;;;27.90;59.60;;;;;;5026601;28;20000;-85
2023/09/10 13:27:53;;;;;;;;;;;27.80;60.20;;;;;;5033708;28;19920;-85
2023/09/10 13:30:20;;;;;;;;;;;27.80;59.80;;;;;;5037691;28;19959;-85
2023/09/10 13:32:45;;;;;;;;;;;27.80;60.30;;;;;;5034440;28;19920;-85
2023/09/10 13:35:10;;;;;;;;;;;27.90;59.60;;;;;;5014101;28;20301;-86
2023/09/10 13:37:38;;;;;;;;;;;28.00;59.00;;;;;;5020817;28;20291;-87
2023/09/10 13:40:04;;;;;;;;;;;28.10;58.60;;;;;;5033370;28;19917;-87
2023/09/10 13:42:30;;;;;;;;;;;28.20;58.10;;;;;;5014606;28;19947;-87
2023/09/10 13:44:55;;;;;;;;;;;28.00;60.80;;;;;;5013227;28;20498;-87
2023/09/10 13:47:21;;;;;;;;;;;27.90;63.70;;;;;;5015847;28;19987;-86
2023/09/10 13:49:46;;;;;;;;;;;27.90;61.30;;;;;;5013377;28;19914;-87
2023/09/10 13:52:12;;;;;;;;;;;27.90;59.40;;;;;;5016669;28;20008;-87
2023/09/10 13:54:37;;;;;;;;;;;28.00;59.30;;;;;;5015275;28;20000;-87
2023/09/10 13:57:03;;;;;;;;;;;27.90;59.90;;;;;;5034823;28;19959;-87
2023/09/10 13:59:28;;;;;;;;;;;27.80;60.00;;;;;;5034646;28;19925;-87
2023/09/10 14:01:54;;;;;;;;;;;27.70;60.10;;;;;;5024821;28;19917;-87
2023/09/10 14:04:20;;;;;;;;;;;27.80;60.40;;;;;;5020253;28;19913;-87
2023/09/10 14:06:45;;;;;;;;;;;27.70;60.80;;;;;;5017288;28;19984;-87
2023/09/10 14:09:10;;;;;;;;;;;27.70;60.70;;;;;;5015289;28;19952;-87
2023/09/10 14:11:36;;;;;;;;;;;27.70;60.50;;;;;;5038579;28;19913;-87